Sanford, NC

12:32 PM EDT on May 24, 2015 (GMT -0400)
Harnett County | | Change Station
CLOSE
Current Station
Airport
Location: Erwin,
Elevation: 197 ft
Nearby Weather Stations

Elev 197 ft 35.38 °N, 78.73 °W | Updated 17 minutes ago

Partly Cloudy
Partly Cloudy
77 °F
Feels Like 77 °F
N
6
Wind Variable Wind from SSW

Today
High -- | Low -- °F
--% Chance of Precip.
Yesterday
High -- | Low -- °F
Precip. -- in
6:06 AM 8:21 PM
Waxing Crescent, 40% visible
Pressure 30.41 in
Visibility 10.0 miles
Clouds Scattered Clouds 4800 ft
Dew Point 53 °F
Humidity 42%
Rainfall 0.00 in
Snow Depth Not available.
UV 9 out of 12
Pollen 7.40 out of 12
Air Quality Not available.
Flu Activity No Activity
METAR KHRJ 241615Z AUTO 20005KT 10SM SCT048 25/12 A3041 RMK AO2 T02520116

More Conditions Fewer Conditions

Pressure 30.41 in
Visibility 10.0 miles
Clouds Scattered Clouds 4800 ft
Dew Point 53 °F
Humidity 42%
Rainfall 0.00 in
Snow Depth Not available.
UV 9 out of 12
Pollen 7.40 out of 12
Air Quality Not available.
Flu Activity No Activity
METAR KHRJ 241615Z AUTO 20005KT 10SM SCT048 25/12 A3041 RMK AO2 T02520116

More Conditions Fewer Conditions

10-Day Weather Forecast

Almanac

Astronomy

May. 24, 2015 Rise Set
Actual Time
Civil Twilight
Nautical Twilight
Astronomical Twilight
Moon
Length of Visible Light
Length of Day
Tomorrow will be .
, % of the Moon is Illuminated

Today's Extremes

State Highs State Lows

Community

WunderPhotos

Upload Photos

1,823,777 photos uploaded!

WunderBlogs® & News

Nearby

Air Quality

  Air Quality AQ Index Pollutant
Not available.

Snow Depth

Station Depth Elevation

Earthquake Activity

City Distance Mag. Time & Date
Minimum magnitude displayed is 2.5.

Coastal Water Temperatures

Place Temperature

Stations

Nearby Weather Stations

Station Location Temp. Windchill Dew Point Humidity Wind Precip. Elev Updated Type